ECM weather

El Carmen Airport
Guamal, Magdalena Department, Colombia

Public forecast

Using degrees Celsius for public forecast. Weather courtesy of forecast.io.

Closest aviation weather report (METAR) to El Carmen Airport

Report is more than 6 hours old.

Closest report is Las Brujas Airport, 64.4 nm (119.2 km) W. Retrieved 2019/12/03 11:00 UTC (2 months ago):

SKCZ 031100Z 00000KT 5000 BR SCT010 24/24 A2984

Closest aviation forecast (TAF) to El Carmen Airport

Closest forecast is Rafael Nuñez International Airport, 108.4 nm (200.8 km) NW. Retrieved 2020/01/24 18:43 UTC (4 hours ago):

TAF SKCG 241630Z 2418/2518 01014KT 9999 FEW017 SCT100 BECMG 2420/2422 33015KT BECMG 2509/2511 09010KT TX32/2418Z TN24/2511Z